createdAt,value
2019-05-30T00:02:13.617Z,17.10
2019-05-30T00:04:41.284Z,17.00
2019-05-30T00:07:11.144Z,16.70
2019-05-30T00:09:37.228Z,16.40
2019-05-30T00:12:05.156Z,16.40
2019-05-30T00:14:32.256Z,16.80
2019-05-30T00:17:00.951Z,17.10
2019-05-30T00:19:28.200Z,17.00
2019-05-30T00:21:56.615Z,17.00
2019-05-30T00:24:24.566Z,16.80
2019-05-30T00:26:52.822Z,16.70
2019-05-30T00:29:20.347Z,16.60
2019-05-30T00:31:47.833Z,16.60
2019-05-30T00:34:15.332Z,16.40
2019-05-30T00:36:43.577Z,16.20
2019-05-30T00:39:11.074Z,16.20
2019-05-30T00:41:38.555Z,16.30
2019-05-30T00:44:06.808Z,16.00
2019-05-30T00:46:34.291Z,16.00
2019-05-30T00:49:02.823Z,16.10
2019-05-30T00:51:31.235Z,16.10
2019-05-30T00:53:58.713Z,16.40
2019-05-30T00:56:27.192Z,16.40
2019-05-30T00:58:56.511Z,16.50
2019-05-30T01:01:24.059Z,16.50
2019-05-30T01:03:51.563Z,16.30
2019-05-30T01:06:19.157Z,16.00
2019-05-30T01:08:46.756Z,15.90
2019-05-30T01:11:15.019Z,15.80
2019-05-30T01:13:42.596Z,15.80
2019-05-30T01:16:10.148Z,16.10
2019-05-30T01:18:37.813Z,15.90
2019-05-30T01:21:05.498Z,15.70
2019-05-30T01:23:33.687Z,15.60
2019-05-30T01:26:01.389Z,15.60
2019-05-30T01:28:29.014Z,15.60
2019-05-30T01:31:03.104Z,15.80
2019-05-30T01:33:24.937Z,15.70
2019-05-30T01:35:52.608Z,15.70
2019-05-30T01:38:20.280Z,15.80
2019-05-30T01:40:48.061Z,15.60
2019-05-30T01:43:15.572Z,15.70
2019-05-30T01:45:43.102Z,15.70
2019-05-30T01:48:11.347Z,15.50
2019-05-30T01:50:38.926Z,15.50
2019-05-30T01:53:06.780Z,15.70
2019-05-30T01:55:34.265Z,15.80
2019-05-30T01:58:03.136Z,15.70
2019-05-30T02:00:39.029Z,15.60
2019-05-30T02:03:07.286Z,15.50
2019-05-30T02:05:35.458Z,15.50
2019-05-30T02:08:05.136Z,15.70
2019-05-30T02:10:32.564Z,15.70
2019-05-30T02:13:01.204Z,15.60
2019-05-30T02:15:28.497Z,15.60
2019-05-30T02:17:56.501Z,15.70
2019-05-30T02:20:24.333Z,15.50
2019-05-30T02:22:51.823Z,15.50
2019-05-30T02:25:20.172Z,15.50
2019-05-30T02:27:47.728Z,15.50
2019-05-30T02:30:15.302Z,15.40
2019-05-30T02:32:42.859Z,15.60
2019-05-30T02:35:12.586Z,15.50
2019-05-30T02:37:38.324Z,15.70
2019-05-30T02:40:09.955Z,15.60
2019-05-30T02:42:35.020Z,15.60
2019-05-30T02:45:03.574Z,15.60
2019-05-30T02:47:30.140Z,15.50
2019-05-30T02:49:57.629Z,15.60
2019-05-30T02:52:25.176Z,15.60
2019-05-30T02:54:52.842Z,15.60
2019-05-30T02:57:20.320Z,15.60
2019-05-30T02:59:47.835Z,15.50
2019-05-30T03:02:17.638Z,15.60
2019-05-30T03:04:44.581Z,15.50
2019-05-30T03:07:13.036Z,15.50
2019-05-30T03:09:39.658Z,15.40
2019-05-30T03:12:09.171Z,15.50
2019-05-30T03:14:35.639Z,15.50
2019-05-30T03:17:05.414Z,15.60
2019-05-30T03:19:32.895Z,15.40
2019-05-30T03:22:02.800Z,15.50
2019-05-30T03:24:27.918Z,15.40
2019-05-30T03:26:55.436Z,15.50
2019-05-30T03:29:22.924Z,15.50
2019-05-30T03:31:50.622Z,15.50
2019-05-30T03:34:27.801Z,15.50
2019-05-30T03:36:46.498Z,15.60
2019-05-30T03:39:15.402Z,15.60
2019-05-30T03:41:41.522Z,15.60
2019-05-30T03:44:10.944Z,15.40
2019-05-30T03:46:36.525Z,15.40
2019-05-30T03:49:04.436Z,15.40
2019-05-30T03:51:32.410Z,15.40
2019-05-30T03:53:59.962Z,15.40
2019-05-30T03:56:28.254Z,15.40
2019-05-30T03:59:00.107Z,15.30
2019-05-30T04:04:25.119Z,15.30
2019-05-30T04:06:54.630Z,15.30
2019-05-30T04:09:24.922Z,15.40
2019-05-30T04:11:53.863Z,15.50
2019-05-30T04:14:23.145Z,15.50
2019-05-30T04:16:50.698Z,15.50
2019-05-30T04:19:19.987Z,15.40
2019-05-30T04:21:46.759Z,15.50
2019-05-30T04:24:16.082Z,15.50
2019-05-30T04:26:42.010Z,15.40
2019-05-30T04:29:12.310Z,15.50
2019-05-30T04:31:39.278Z,15.40
2019-05-30T04:34:08.262Z,15.40
2019-05-30T04:36:34.333Z,15.40
2019-05-30T04:39:03.498Z,15.40
2019-05-30T04:41:30.962Z,15.40
2019-05-30T04:43:58.642Z,15.40
2019-05-30T04:46:26.147Z,15.40
2019-05-30T04:48:53.868Z,15.30
2019-05-30T04:51:21.919Z,15.30
2019-05-30T04:53:48.897Z,15.30
2019-05-30T04:56:19.167Z,15.40
2019-05-30T04:58:45.532Z,15.40
2019-05-30T05:01:13.201Z,15.50
2019-05-30T05:03:46.153Z,15.40
2019-05-30T05:06:11.510Z,15.50
2019-05-30T05:08:38.388Z,15.50
2019-05-30T05:11:06.649Z,15.50
2019-05-30T05:13:34.281Z,15.50
2019-05-30T05:16:01.748Z,15.50
2019-05-30T05:18:29.351Z,15.40
2019-05-30T05:20:56.959Z,15.40
2019-05-30T05:23:24.676Z,15.40
2019-05-30T05:26:00.781Z,15.40
2019-05-30T05:28:21.935Z,15.40
2019-05-30T05:30:48.142Z,15.40
2019-05-30T05:33:16.653Z,15.40
2019-05-30T05:35:43.538Z,15.40
2019-05-30T05:38:11.814Z,15.40
2019-05-30T05:40:39.380Z,15.30
2019-05-30T05:43:06.990Z,15.40
2019-05-30T05:45:34.507Z,15.30
2019-05-30T05:48:03.412Z,15.40
2019-05-30T05:50:31.718Z,15.40
2019-05-30T05:52:59.251Z,15.40
2019-05-30T05:55:26.933Z,15.40
2019-05-30T05:57:55.202Z,15.50
2019-05-30T06:00:23.290Z,15.50
2019-05-30T06:02:50.258Z,15.40
2019-05-30T06:05:18.054Z,15.50
2019-05-30T06:07:46.512Z,15.50
2019-05-30T06:10:14.041Z,15.40
2019-05-30T06:12:41.828Z,15.40
2019-05-30T06:15:10.076Z,15.40
2019-05-30T06:17:39.081Z,15.40
2019-05-30T06:20:06.642Z,15.40
2019-05-30T06:22:34.409Z,15.40
2019-05-30T06:25:02.364Z,15.40
2019-05-30T06:27:29.672Z,15.40
2019-05-30T06:29:58.049Z,15.50
2019-05-30T06:32:26.789Z,15.50
2019-05-30T06:34:54.042Z,15.50
2019-05-30T06:37:23.057Z,15.50
2019-05-30T06:39:49.292Z,15.50
2019-05-30T06:42:16.802Z,15.50
2019-05-30T06:44:44.450Z,15.40
2019-05-30T06:47:12.728Z,15.50
2019-05-30T06:49:40.212Z,15.40
2019-05-30T06:52:07.831Z,15.50
2019-05-30T06:54:36.432Z,15.50
2019-05-30T06:57:04.110Z,15.50
2019-05-30T06:59:32.367Z,15.50
2019-05-30T07:02:00.065Z,15.50
2019-05-30T07:04:31.083Z,15.50
2019-05-30T07:06:56.045Z,15.50
2019-05-30T07:09:24.883Z,15.60
2019-05-30T07:11:51.227Z,15.60
2019-05-30T07:14:18.718Z,15.60
2019-05-30T07:16:46.993Z,15.60
2019-05-30T07:19:15.236Z,15.70
2019-05-30T07:21:42.841Z,15.60
2019-05-30T07:24:11.097Z,15.60
2019-05-30T07:26:39.459Z,15.70
2019-05-30T07:29:06.998Z,15.60
2019-05-30T07:31:34.697Z,15.70
2019-05-30T07:34:03.906Z,15.60
2019-05-30T07:36:32.301Z,15.60
2019-05-30T07:38:59.036Z,15.60
2019-05-30T07:41:26.906Z,15.70
2019-05-30T07:43:54.270Z,15.70
2019-05-30T07:46:22.781Z,15.70
2019-05-30T07:48:51.033Z,15.80
2019-05-30T07:51:18.605Z,15.80
2019-05-30T07:53:46.263Z,15.80
2019-05-30T07:56:14.662Z,15.80
2019-05-30T07:58:42.278Z,15.80
2019-05-30T08:01:09.783Z,15.80
2019-05-30T08:03:38.935Z,15.90
2019-05-30T08:06:06.371Z,15.90
2019-05-30T08:08:36.016Z,16.00
2019-05-30T08:11:09.352Z,15.90
2019-05-30T08:13:31.020Z,16.00
2019-05-30T08:15:57.412Z,16.00
2019-05-30T08:18:24.892Z,16.10
2019-05-30T08:20:53.974Z,16.10
2019-05-30T08:23:21.480Z,16.10
2019-05-30T08:25:48.972Z,16.10
2019-05-30T08:28:16.571Z,16.10
2019-05-30T08:30:44.252Z,16.10
2019-05-30T08:33:12.724Z,16.20
2019-05-30T08:35:49.064Z,16.20
2019-05-30T08:38:07.847Z,16.10
2019-05-30T08:40:35.437Z,16.20
2019-05-30T08:43:04.604Z,16.20
2019-05-30T08:45:32.124Z,16.20
2019-05-30T08:47:59.701Z,16.20
2019-05-30T08:50:27.315Z,16.30
2019-05-30T08:52:54.808Z,16.30
2019-05-30T08:55:22.335Z,16.30
2019-05-30T08:57:49.915Z,16.30
2019-05-30T09:00:18.398Z,16.40
2019-05-30T09:02:46.939Z,16.50
2019-05-30T09:05:15.185Z,16.50
2019-05-30T09:07:44.520Z,16.60
2019-05-30T09:10:11.708Z,16.60
2019-05-30T09:12:42.061Z,16.60
2019-05-30T09:15:11.237Z,16.70
2019-05-30T09:17:40.355Z,16.80
2019-05-30T09:20:06.368Z,16.80
2019-05-30T09:22:34.048Z,16.80
2019-05-30T09:25:02.359Z,16.80
2019-05-30T09:27:29.877Z,16.70
2019-05-30T09:29:57.413Z,16.80
2019-05-30T09:32:24.915Z,16.80
2019-05-30T09:34:52.484Z,16.80
2019-05-30T09:37:20.750Z,16.80
2019-05-30T09:39:49.412Z,16.80
2019-05-30T09:42:15.885Z,16.90
2019-05-30T09:44:45.778Z,16.90
2019-05-30T09:47:11.424Z,16.90
2019-05-30T09:49:41.536Z,17.00
2019-05-30T09:52:08.803Z,17.00
2019-05-30T09:54:36.399Z,17.00
2019-05-30T09:57:03.970Z,17.10
2019-05-30T09:59:31.535Z,17.00
2019-05-30T10:01:59.390Z,17.10
2019-05-30T10:04:27.021Z,17.10
2019-05-30T10:06:54.638Z,17.10
2019-05-30T10:09:22.130Z,17.10
2019-05-30T10:11:49.718Z,17.20
2019-05-30T10:14:17.286Z,17.20
2019-05-30T10:16:52.424Z,17.20
2019-05-30T10:19:15.613Z,17.20
2019-05-30T10:21:43.146Z,17.20
2019-05-30T10:24:10.829Z,17.10
2019-05-30T10:26:39.192Z,17.10
2019-05-30T10:29:07.764Z,17.10
2019-05-30T10:31:35.344Z,17.10
2019-05-30T10:34:03.756Z,17.10
2019-05-30T10:36:43.898Z,17.10
2019-05-30T10:38:59.791Z,17.10
2019-05-30T10:41:27.282Z,17.20
2019-05-30T10:43:55.520Z,17.20
2019-05-30T10:46:23.011Z,17.20
2019-05-30T10:48:52.666Z,17.30
2019-05-30T10:51:19.747Z,17.30
2019-05-30T10:53:48.649Z,17.40
2019-05-30T10:56:14.992Z,17.20
2019-05-30T10:58:42.678Z,17.20
2019-05-30T11:01:10.951Z,17.30
2019-05-30T11:03:39.206Z,17.30
2019-05-30T11:06:10.489Z,17.40
2019-05-30T11:08:38.761Z,17.70
2019-05-30T11:11:06.424Z,17.70
2019-05-30T11:13:33.968Z,17.70
2019-05-30T11:16:01.545Z,17.80
2019-05-30T11:18:29.840Z,18.10
2019-05-30T11:20:58.606Z,18.30
2019-05-30T11:23:26.530Z,18.30
2019-05-30T11:25:54.729Z,18.30
2019-05-30T11:28:22.527Z,18.40
2019-05-30T11:30:50.641Z,18.30
2019-05-30T11:33:17.624Z,18.50
2019-05-30T11:35:45.126Z,18.60
2019-05-30T11:38:12.626Z,18.70
2019-05-30T11:40:41.086Z,18.90
2019-05-30T11:43:08.637Z,18.80
2019-05-30T11:45:36.313Z,19.00
2019-05-30T11:48:03.959Z,19.10
2019-05-30T11:50:32.383Z,19.00
2019-05-30T11:53:00.637Z,19.00
2019-05-30T11:55:29.640Z,19.10
2019-05-30T11:57:58.288Z,19.00
2019-05-30T12:00:24.626Z,19.00
2019-05-30T12:02:52.263Z,19.10
2019-05-30T12:05:19.802Z,19.10
2019-05-30T12:07:48.294Z,19.30
2019-05-30T12:10:16.628Z,19.30
2019-05-30T12:12:44.135Z,19.30
2019-05-30T12:15:12.388Z,19.30
2019-05-30T12:17:39.901Z,19.20
2019-05-30T12:20:08.143Z,19.40
2019-05-30T12:22:35.628Z,19.30
2019-05-30T12:25:05.205Z,19.50
2019-05-30T12:27:33.072Z,19.50
2019-05-30T12:30:00.660Z,19.50
2019-05-30T12:32:28.137Z,19.40
2019-05-30T12:34:56.490Z,19.50
2019-05-30T12:37:23.978Z,19.50
2019-05-30T12:39:52.544Z,19.60
2019-05-30T12:42:20.619Z,19.70
2019-05-30T12:44:48.185Z,19.70
2019-05-30T12:47:15.678Z,19.60
2019-05-30T12:49:44.031Z,19.80
2019-05-30T12:52:11.596Z,19.80
2019-05-30T12:54:39.166Z,19.80
2019-05-30T12:57:06.998Z,19.90
2019-05-30T12:59:34.287Z,19.90
2019-05-30T13:02:03.382Z,20.00
2019-05-30T13:04:31.065Z,19.90
2019-05-30T13:06:59.355Z,19.90
2019-05-30T13:09:26.181Z,19.90
2019-05-30T13:11:54.293Z,20.00
2019-05-30T13:14:22.127Z,19.90
2019-05-30T13:16:49.809Z,19.90
2019-05-30T13:19:17.366Z,19.90
2019-05-30T13:21:44.924Z,19.90
2019-05-30T13:24:12.487Z,20.00
2019-05-30T13:26:41.183Z,20.30
2019-05-30T13:29:08.738Z,20.30
2019-05-30T13:31:36.454Z,20.40
2019-05-30T13:34:04.948Z,20.40
2019-05-30T13:36:32.361Z,20.20
2019-05-30T13:39:01.064Z,20.20
2019-05-30T13:41:27.694Z,20.40
2019-05-30T13:43:55.364Z,20.30
2019-05-30T13:46:23.027Z,20.30
2019-05-30T13:48:51.644Z,20.40
2019-05-30T13:51:20.110Z,20.50
2019-05-30T13:53:47.871Z,20.40
2019-05-30T13:56:15.536Z,20.60
2019-05-30T13:58:43.095Z,20.60
2019-05-30T14:01:13.819Z,20.70
2019-05-30T14:03:38.932Z,20.80
2019-05-30T14:06:06.452Z,20.80
2019-05-30T14:08:41.586Z,21.10
2019-05-30T14:11:04.658Z,21.00
2019-05-30T14:13:32.789Z,21.10
2019-05-30T14:16:00.894Z,21.10
2019-05-30T14:18:27.889Z,21.10
2019-05-30T14:20:57.120Z,21.20
2019-05-30T14:23:25.721Z,21.40
2019-05-30T14:25:54.080Z,21.20
2019-05-30T14:28:21.563Z,21.20
2019-05-30T14:30:49.967Z,21.00
2019-05-30T14:33:17.489Z,21.10
2019-05-30T14:35:46.191Z,21.50
2019-05-30T14:38:15.186Z,21.30
2019-05-30T14:40:44.185Z,21.30
2019-05-30T14:43:13.621Z,21.50
2019-05-30T14:45:41.853Z,21.70
2019-05-30T14:48:10.530Z,21.60
2019-05-30T14:50:37.684Z,21.50
2019-05-30T14:53:05.205Z,21.50
2019-05-30T14:55:34.165Z,21.80
2019-05-30T14:58:01.754Z,21.70
2019-05-30T15:00:29.304Z,21.60
2019-05-30T15:02:56.916Z,21.90
2019-05-30T15:05:25.745Z,22.10
2019-05-30T15:07:53.324Z,22.00
2019-05-30T15:10:20.819Z,22.00
2019-05-30T15:12:49.279Z,21.90
2019-05-30T15:15:18.693Z,21.90
2019-05-30T15:17:44.404Z,21.90
2019-05-30T15:20:12.242Z,21.90
2019-05-30T15:22:39.393Z,21.90
2019-05-30T15:25:08.147Z,22.20
2019-05-30T15:27:35.786Z,22.20
2019-05-30T15:30:06.359Z,21.90
2019-05-30T15:32:33.708Z,21.80
2019-05-30T15:35:02.517Z,21.70
2019-05-30T15:37:30.181Z,21.70
2019-05-30T15:39:58.430Z,21.60
2019-05-30T15:42:26.806Z,21.50
2019-05-30T15:44:55.225Z,21.60
2019-05-30T15:47:23.486Z,21.40
2019-05-30T15:49:52.310Z,21.40
2019-05-30T15:52:19.006Z,21.60
2019-05-30T15:54:47.478Z,21.60
2019-05-30T15:57:15.684Z,21.50
2019-05-30T15:59:42.487Z,21.70
2019-05-30T16:02:10.081Z,21.80
2019-05-30T16:04:37.641Z,21.90
2019-05-30T16:07:05.223Z,21.90
2019-05-30T16:09:46.279Z,21.90
2019-05-30T16:12:01.883Z,22.00
2019-05-30T16:14:29.569Z,22.00
2019-05-30T16:16:58.436Z,22.00
2019-05-30T16:19:26.539Z,21.90
2019-05-30T16:21:53.464Z,21.90
2019-05-30T16:24:21.044Z,21.90
2019-05-30T16:26:48.542Z,21.90
2019-05-30T16:29:17.673Z,21.90
2019-05-30T16:31:45.172Z,21.80
2019-05-30T16:36:44.211Z,21.60
2019-05-30T16:39:13.944Z,21.80
2019-05-30T16:41:42.861Z,21.70
2019-05-30T16:44:09.226Z,21.60
2019-05-30T16:46:37.849Z,21.70
2019-05-30T16:49:06.183Z,21.70
2019-05-30T16:51:34.674Z,21.70
2019-05-30T16:54:04.235Z,21.50
2019-05-30T16:56:31.948Z,21.60
2019-05-30T16:58:59.563Z,21.60
2019-05-30T17:01:27.868Z,21.70
2019-05-30T17:03:55.577Z,21.70
2019-05-30T17:06:24.213Z,21.40
2019-05-30T17:11:21.644Z,21.10
2019-05-30T17:13:49.139Z,21.10
2019-05-30T17:16:17.867Z,21.20
2019-05-30T17:18:46.085Z,21.20
2019-05-30T17:21:14.337Z,21.20
2019-05-30T17:23:43.003Z,21.30
2019-05-30T17:28:40.583Z,21.60
2019-05-30T17:31:09.322Z,21.60
2019-05-30T17:33:38.122Z,21.40
2019-05-30T17:36:05.621Z,21.50
2019-05-30T17:38:33.646Z,21.40
2019-05-30T17:43:31.068Z,21.10
2019-05-30T17:46:00.143Z,21.00
2019-05-30T17:48:29.801Z,21.00
2019-05-30T17:50:56.546Z,21.00
2019-05-30T17:53:24.056Z,21.30
2019-05-30T17:55:51.543Z,21.30
2019-05-30T17:58:20.578Z,21.10
2019-05-30T18:00:48.522Z,21.30
2019-05-30T18:03:16.791Z,21.20
2019-05-30T18:05:45.062Z,21.30
2019-05-30T18:08:13.627Z,21.20
2019-05-30T18:10:52.995Z,21.10
2019-05-30T18:13:09.494Z,21.30
2019-05-30T18:15:37.760Z,21.30
2019-05-30T18:18:05.538Z,21.20
2019-05-30T18:20:47.743Z,21.50
2019-05-30T18:23:01.693Z,21.40
2019-05-30T18:25:31.730Z,21.30
2019-05-30T18:27:58.197Z,21.20
2019-05-30T18:30:29.886Z,21.30
2019-05-30T18:32:56.288Z,21.30
2019-05-30T18:35:24.195Z,21.20
2019-05-30T18:37:52.217Z,21.20
2019-05-30T18:40:24.745Z,21.20
2019-05-30T18:42:52.035Z,21.20
2019-05-30T18:45:19.694Z,21.10
2019-05-30T18:47:47.183Z,21.20
2019-05-30T18:50:15.436Z,20.90
2019-05-30T18:52:43.818Z,21.00
2019-05-30T18:55:12.510Z,20.80
2019-05-30T18:57:40.183Z,20.80
2019-05-30T19:00:08.010Z,21.00
2019-05-30T19:02:35.679Z,20.90
2019-05-30T19:05:06.573Z,20.90
2019-05-30T19:07:34.920Z,21.00
2019-05-30T19:10:03.107Z,21.00
2019-05-30T19:12:30.781Z,20.80
2019-05-30T19:14:58.285Z,20.90
2019-05-30T19:17:25.832Z,20.80
2019-05-30T19:19:54.611Z,20.40
2019-05-30T19:22:22.116Z,20.40
2019-05-30T19:24:51.024Z,20.60
2019-05-30T19:27:18.517Z,20.60
2019-05-30T19:29:47.216Z,20.30
2019-05-30T19:32:16.204Z,20.30
2019-05-30T19:34:43.690Z,20.30
2019-05-30T19:37:11.945Z,20.40
2019-05-30T19:39:39.418Z,20.40
2019-05-30T19:42:06.931Z,20.30
2019-05-30T19:44:39.295Z,20.30
2019-05-30T19:47:03.876Z,20.30
2019-05-30T19:49:32.466Z,20.50
2019-05-30T19:51:59.868Z,20.40
2019-05-30T19:54:28.823Z,20.20
2019-05-30T19:56:55.738Z,20.30
2019-05-30T19:59:23.319Z,20.20
2019-05-30T20:01:50.900Z,20.20
2019-05-30T20:04:19.270Z,20.30
2019-05-30T20:06:48.893Z,20.30
2019-05-30T20:09:17.276Z,20.20
2019-05-30T20:11:59.880Z,20.20
2019-05-30T20:14:14.114Z,20.10
2019-05-30T20:16:41.993Z,20.00
2019-05-30T20:19:09.150Z,19.90
2019-05-30T20:21:37.785Z,20.00
2019-05-30T20:24:05.350Z,20.00
2019-05-30T20:26:32.826Z,20.00
2019-05-30T20:29:01.735Z,20.10
2019-05-30T20:31:29.231Z,20.10
2019-05-30T20:33:57.591Z,19.80
2019-05-30T20:36:25.194Z,19.80
2019-05-30T20:38:53.551Z,19.90
2019-05-30T20:41:21.063Z,19.90
2019-05-30T20:43:48.533Z,19.70
2019-05-30T20:46:23.297Z,20.00
2019-05-30T20:48:45.142Z,19.90
2019-05-30T20:51:20.811Z,20.00
2019-05-30T20:53:41.237Z,20.00
2019-05-30T20:56:08.449Z,20.00
2019-05-30T20:58:35.936Z,20.00
2019-05-30T21:01:04.616Z,19.90
2019-05-30T21:03:33.298Z,19.70
2019-05-30T21:06:01.777Z,19.80
2019-05-30T21:08:29.272Z,19.70
2019-05-30T21:10:57.607Z,19.70
2019-05-30T21:13:25.182Z,19.70
2019-05-30T21:15:52.768Z,19.70
2019-05-30T21:18:21.039Z,19.80
2019-05-30T21:20:48.537Z,19.70
2019-05-30T21:23:16.176Z,19.90
2019-05-30T21:25:45.194Z,19.80
2019-05-30T21:28:12.884Z,19.70
2019-05-30T21:30:41.289Z,19.70
2019-05-30T21:33:08.259Z,19.80
2019-05-30T21:35:35.757Z,19.70
2019-05-30T21:38:04.620Z,19.50
2019-05-30T21:40:32.121Z,19.50
2019-05-30T21:43:06.382Z,19.50
2019-05-30T21:45:27.197Z,19.60
2019-05-30T21:47:54.878Z,19.50
2019-05-30T21:50:23.738Z,19.50
2019-05-30T21:52:52.091Z,19.60
2019-05-30T21:55:19.570Z,19.60
2019-05-30T21:57:48.038Z,19.60
2019-05-30T22:00:14.587Z,19.50
2019-05-30T22:02:42.300Z,19.40
2019-05-30T22:05:09.670Z,19.50
2019-05-30T22:07:37.736Z,19.40
2019-05-30T22:10:05.315Z,19.40
2019-05-30T22:12:33.898Z,19.40
2019-05-30T22:15:01.658Z,19.40
2019-05-30T22:17:29.234Z,19.30
2019-05-30T22:19:58.241Z,19.30
2019-05-30T22:22:25.896Z,19.30
2019-05-30T22:24:53.439Z,19.30
2019-05-30T22:27:21.145Z,19.20
2019-05-30T22:29:50.513Z,19.30
2019-05-30T22:32:17.806Z,18.90
2019-05-30T22:34:46.658Z,19.00
2019-05-30T22:37:13.769Z,19.00
2019-05-30T22:39:42.743Z,18.90
2019-05-30T22:42:10.101Z,18.90
2019-05-30T22:44:37.729Z,18.90
2019-05-30T22:47:06.282Z,19.00
2019-05-30T22:49:34.534Z,18.90
2019-05-30T22:52:02.057Z,18.90
2019-05-30T22:54:29.510Z,19.00
2019-05-30T22:56:57.020Z,18.90
2019-05-30T22:59:24.505Z,19.00
2019-05-30T23:01:53.666Z,18.90
2019-05-30T23:04:20.323Z,18.90
2019-05-30T23:06:48.265Z,18.90
2019-05-30T23:09:16.150Z,18.60
2019-05-30T23:11:43.667Z,18.70
2019-05-30T23:14:11.919Z,18.70
2019-05-30T23:16:39.401Z,18.70
2019-05-30T23:19:07.742Z,18.60
2019-05-30T23:21:35.268Z,18.60
2019-05-30T23:24:03.745Z,18.70
2019-05-30T23:26:31.299Z,18.90
2019-05-30T23:28:59.858Z,18.70
2019-05-30T23:31:27.522Z,18.70
2019-05-30T23:33:56.376Z,18.50
2019-05-30T23:36:23.475Z,18.40
2019-05-30T23:38:50.961Z,18.40
2019-05-30T23:41:19.250Z,18.50
2019-05-30T23:44:01.855Z,18.50
2019-05-30T23:46:15.368Z,18.60
2019-05-30T23:48:42.875Z,18.50
2019-05-30T23:51:10.391Z,18.40
2019-05-30T23:53:38.768Z,18.50
2019-05-30T23:56:06.543Z,18.50
2019-05-30T23:58:34.111Z,18.50
